This is the latest recevied weather packets stored in our database for station/object EA3IBE-10. If no packets are shown the sender has not sent any weather packets the latest 10 day(s).
| Time | Temp. | Humidity | Pressure | Rain* | Wind** | Luminosity | Snow |
|---|---|---|---|---|---|---|---|
| 1777586960 | 14.44° C | 100% | 1017.1 hPa | - | - | - | - |
| 1777584560 | 15° C | 100% | 1017.1 hPa | - | - | - | - |
| 1777582160 | 16.11° C | 100% | 1016.7 hPa | - | - | - | - |
| 1777579760 | 17.78° C | 89% | 1016.3 hPa | - | - | - | - |
| 1777577372 | 18.89° C | 100% | 1015.8 hPa | - | - | - | - |
| 1777577360 | 18.89° C | 100% | 1015.8 hPa | - | - | - | - |
| 1777574960 | 20° C | 83% | 1015.3 hPa | - | - | - | - |
| 1777572560 | 22.22° C | 57% | 1014.9 hPa | - | - | - | - |
| 1777570159 | 25° C | 49% | 1014.5 hPa | - | - | - | - |
| 1777567759 | 25.56° C | 45% | 1014.4 hPa | - | - | - | - |
| 1777565359 | 25.56° C | 44% | 1014.7 hPa | - | - | - | - |
| 1777562959 | 26.67° C | 43% | 1014.6 hPa | - | - | - | - |
| 1777560559 | 28.89° C | 39% | 1014.4 hPa | - | - | - | - |
| 1777558159 | 28.89° C | 40% | 1014.7 hPa | - | - | - | - |
| 1777555759 | 30.56° C | 37% | 1014.8 hPa | - | - | - | - |
| 1777553359 | 30° C | 37% | 1015.1 hPa | - | - | - | - |
| 1777550959 | 29.44° C | 38% | 1015.1 hPa | - | - | - | - |
| 1777548558 | 29.44° C | 36% | 1015.3 hPa | - | - | - | - |
| 1777546158 | 27.78° C | 36% | 1015.5 hPa | - | - | - | - |
| 1777543758 | 29.44° C | 34% | 1015.5 hPa | - | - | - | - |
| 1777541358 | 23.89° C | 46% | 1015.1 hPa | - | - | - | - |
| 1777538970 | 23.89° C | 42% | 1014.8 hPa | - | - | - | - |
| 1777538958 | 23.89° C | 42% | 1014.8 hPa | - | - | - | - |
| 1777536570 | 25.56° C | 42% | 1014.4 hPa | - | - | - | - |
| 1777536558 | 25.56° C | 42% | 1014.4 hPa | - | - | - | - |
* Rain since midnight (hover to see other rain measurements)
** Current wind speed in m/s (hover to see current wind gust speed)